createdAt,value
2017-12-30T00:00:18.745Z,0
2017-12-30T00:01:18.505Z,0
2017-12-30T00:02:18.755Z,0
2017-12-30T00:03:18.516Z,0
2017-12-30T00:04:18.786Z,0
2017-12-30T00:05:33.472Z,0
2017-12-30T00:06:18.586Z,0
2017-12-30T00:07:18.306Z,0
2017-12-30T00:08:18.569Z,0
2017-12-30T00:09:18.820Z,0
2017-12-30T00:10:18.610Z,0
2017-12-30T00:11:18.878Z,0
2017-12-30T00:12:18.615Z,0
2017-12-30T00:13:18.675Z,0
2017-12-30T00:14:18.619Z,0
2017-12-30T00:15:18.440Z,0
2017-12-30T00:17:18.977Z,0
2017-12-30T00:18:18.969Z,0
2017-12-30T00:19:18.714Z,0
2017-12-30T00:20:18.982Z,0
2017-12-30T00:21:33.654Z,0
2017-12-30T00:22:18.721Z,0
2017-12-30T00:23:18.757Z,0
2017-12-30T00:24:18.789Z,0
2017-12-30T00:25:19.050Z,0
2017-12-30T00:26:18.807Z,0
2017-12-30T00:27:19.064Z,0
2017-12-30T00:28:18.805Z,0
2017-12-30T00:29:33.786Z,0
2017-12-30T00:30:19.108Z,0
2017-12-30T00:31:19.088Z,0
2017-12-30T00:32:33.780Z,0
2017-12-30T00:33:18.878Z,0
2017-12-30T00:34:18.913Z,0
2017-12-30T00:35:19.174Z,0
2017-12-30T00:36:33.584Z,0
2017-12-30T00:37:33.584Z,0
2017-12-30T00:38:18.761Z,0
2017-12-30T00:39:19.234Z,0
2017-12-30T00:40:18.987Z,0
2017-12-30T00:41:33.920Z,0
2017-12-30T00:42:18.988Z,0
2017-12-30T00:43:33.940Z,0
2017-12-30T00:44:19.150Z,0
2017-12-30T00:45:19.281Z,0
2017-12-30T00:46:19.038Z,0
2017-12-30T00:47:19.020Z,0
2017-12-30T00:48:19.053Z,0
2017-12-30T00:49:18.844Z,0
2017-12-30T00:50:33.742Z,0
2017-12-30T00:51:19.086Z,0
2017-12-30T00:52:34.042Z,0
2017-12-30T00:53:19.348Z,0
2017-12-30T00:54:19.152Z,0
2017-12-30T00:55:19.145Z,0
2017-12-30T00:56:19.492Z,0
2017-12-30T00:57:19.432Z,0
2017-12-30T00:58:19.179Z,0
2017-12-30T00:59:19.432Z,0
2017-12-30T01:00:19.073Z,0
2017-12-30T01:01:19.442Z,0
2017-12-30T01:02:19.515Z,0
2017-12-30T01:03:19.494Z,0
2017-12-30T01:04:18.996Z,0
2017-12-30T01:05:19.523Z,0
2017-12-30T01:06:19.536Z,0
2017-12-30T01:07:19.573Z,0
2017-12-30T01:08:34.253Z,0
2017-12-30T01:09:19.587Z,0
2017-12-30T01:10:19.623Z,0
2017-12-30T01:11:34.284Z,0
2017-12-30T01:12:34.263Z,0
2017-12-30T01:13:34.054Z,0
2017-12-30T01:14:19.602Z,0
2017-12-30T01:15:19.667Z,0
2017-12-30T01:16:19.650Z,0
2017-12-30T01:17:19.413Z,0
2017-12-30T01:18:19.198Z,0
2017-12-30T01:19:19.670Z,0
2017-12-30T01:20:19.835Z,0
2017-12-30T01:21:34.159Z,0
2017-12-30T01:23:19.736Z,0
2017-12-30T01:24:34.425Z,0
2017-12-30T01:25:19.808Z,0
2017-12-30T01:26:19.820Z,0
2017-12-30T01:27:19.799Z,0
2017-12-30T01:28:34.220Z,0
2017-12-30T01:29:19.832Z,0
2017-12-30T01:30:19.851Z,0
2017-12-30T01:31:34.237Z,0
2017-12-30T01:32:19.876Z,0
2017-12-30T01:33:19.885Z,0
2017-12-30T01:34:19.633Z,0
2017-12-30T01:35:19.902Z,0
2017-12-30T01:36:19.660Z,0
2017-12-30T01:37:19.641Z,0
2017-12-30T01:38:19.695Z,0
2017-12-30T01:39:19.660Z,0
2017-12-30T01:40:34.349Z,0
2017-12-30T01:41:19.942Z,0
2017-12-30T01:42:19.989Z,0
2017-12-30T01:43:19.745Z,0
2017-12-30T01:44:20.008Z,0
2017-12-30T01:45:19.744Z,0
2017-12-30T01:46:19.254Z,0
2017-12-30T01:47:20.033Z,0
2017-12-30T01:48:20.034Z,0
2017-12-30T01:49:19.817Z,0
2017-12-30T01:50:34.779Z,0
2017-12-30T01:51:19.565Z,0
2017-12-30T01:52:34.509Z,0
2017-12-30T01:53:20.124Z,0
2017-12-30T01:54:19.908Z,0
2017-12-30T01:55:20.111Z,0
2017-12-30T01:56:49.470Z,0
2017-12-30T01:57:20.166Z,0
2017-12-30T01:58:34.834Z,0
2017-12-30T01:59:19.955Z,0
2017-12-30T02:00:19.651Z,0
2017-12-30T02:01:19.944Z,0
2017-12-30T02:02:34.640Z,0
2017-12-30T02:03:20.196Z,0
2017-12-30T02:05:20.113Z,0
2017-12-30T02:06:20.264Z,0
2017-12-30T02:07:34.948Z,0
2017-12-30T02:08:20.281Z,0
2017-12-30T02:09:20.318Z,0
2017-12-30T02:10:20.320Z,0
2017-12-30T02:11:20.317Z,0
2017-12-30T02:12:34.493Z,0
2017-12-30T02:13:20.099Z,0
2017-12-30T02:14:20.352Z,0
2017-12-30T02:15:20.389Z,0
2017-12-30T02:16:35.077Z,0
2017-12-30T02:17:35.093Z,0
2017-12-30T02:18:20.417Z,0
2017-12-30T02:19:20.177Z,0
2017-12-30T02:20:19.923Z,0
2017-12-30T02:21:20.448Z,0
2017-12-30T02:22:20.470Z,0
2017-12-30T02:23:20.533Z,0
2017-12-30T02:24:20.495Z,0
2017-12-30T02:25:34.674Z,0
2017-12-30T02:26:20.523Z,0
2017-12-30T02:27:35.198Z,0
2017-12-30T02:28:20.584Z,0
2017-12-30T02:29:34.736Z,0
2017-12-30T02:30:20.598Z,0
2017-12-30T02:31:20.614Z,0
2017-12-30T02:32:20.309Z,0
2017-12-30T02:33:20.375Z,0
2017-12-30T02:34:20.607Z,0
2017-12-30T02:35:20.628Z,0
2017-12-30T02:36:20.609Z,0
2017-12-30T02:37:35.324Z,0
2017-12-30T02:38:20.434Z,0
2017-12-30T02:40:20.672Z,0
2017-12-30T02:41:20.460Z,0
2017-12-30T02:42:20.713Z,0
2017-12-30T02:43:20.457Z,0
2017-12-30T02:44:35.158Z,0
2017-12-30T02:45:20.499Z,0
2017-12-30T02:46:20.760Z,0
2017-12-30T02:47:20.488Z,0
2017-12-30T02:48:20.520Z,0
2017-12-30T02:49:20.303Z,0
2017-12-30T02:50:20.835Z,0
2017-12-30T02:51:20.835Z,0
2017-12-30T02:52:20.577Z,0
2017-12-30T02:54:35.569Z,0
2017-12-30T02:55:20.610Z,0
2017-12-30T02:56:35.553Z,0
2017-12-30T02:57:20.885Z,0
2017-12-30T02:58:20.404Z,0
2017-12-30T02:59:50.278Z,0
2017-12-30T03:00:20.945Z,0
2017-12-30T03:01:20.684Z,0
2017-12-30T03:02:20.953Z,0
2017-12-30T03:03:20.708Z,0
2017-12-30T03:04:20.506Z,0
2017-12-30T03:07:20.757Z,0
2017-12-30T03:08:20.515Z,0
2017-12-30T03:09:35.695Z,0
2017-12-30T03:10:21.077Z,0
2017-12-30T03:11:20.338Z,0
2017-12-30T03:12:21.122Z,0
2017-12-30T03:13:20.881Z,0
2017-12-30T03:14:21.095Z,0
2017-12-30T03:15:35.520Z,0
2017-12-30T03:16:20.877Z,0
2017-12-30T03:17:35.569Z,0
2017-12-30T03:18:20.902Z,0
2017-12-30T03:19:20.897Z,0
2017-12-30T03:20:20.945Z,0
2017-12-30T03:21:35.617Z,0
2017-12-30T03:22:21.234Z,0
2017-12-30T03:23:21.217Z,0
2017-12-30T03:24:20.960Z,0
2017-12-30T03:25:21.002Z,0
2017-12-30T03:26:21.294Z,0
2017-12-30T03:28:21.063Z,0
2017-12-30T03:29:35.772Z,0
2017-12-30T03:30:21.328Z,0
2017-12-30T03:31:36.039Z,0
2017-12-30T03:32:21.117Z,0
2017-12-30T03:33:20.823Z,0
2017-12-30T03:34:21.406Z,0
2017-12-30T03:35:21.366Z,0
2017-12-30T03:37:21.157Z,0
2017-12-30T03:38:21.174Z,0
2017-12-30T03:39:35.597Z,0
2017-12-30T03:40:21.450Z,0
2017-12-30T03:41:21.438Z,0
2017-12-30T03:42:21.462Z,0
2017-12-30T03:43:36.270Z,0
2017-12-30T03:44:21.464Z,0
2017-12-30T03:45:21.507Z,0
2017-12-30T03:46:21.517Z,0
2017-12-30T03:48:21.269Z,0
2017-12-30T03:49:36.200Z,0
2017-12-30T03:50:21.600Z,0
2017-12-30T03:51:21.583Z,0
2017-12-30T03:52:21.607Z,0
2017-12-30T03:53:36.029Z,0
2017-12-30T03:54:36.301Z,0
2017-12-30T03:55:21.156Z,0
2017-12-30T03:56:21.687Z,0
2017-12-30T03:57:21.405Z,0
2017-12-30T03:58:20.897Z,0
2017-12-30T03:59:21.441Z,0
2017-12-30T04:01:36.364Z,0
2017-12-30T04:02:36.121Z,0
2017-12-30T04:03:21.777Z,0
2017-12-30T04:04:21.505Z,0
2017-12-30T04:05:21.528Z,0
2017-12-30T04:06:21.800Z,0
2017-12-30T04:07:21.549Z,0
2017-12-30T04:08:21.779Z,0
2017-12-30T04:09:21.304Z,0
2017-12-30T04:10:21.559Z,0
2017-12-30T04:11:21.577Z,0
2017-12-30T04:12:36.494Z,0
2017-12-30T04:13:21.876Z,0
2017-12-30T04:14:21.869Z,0
2017-12-30T04:15:21.636Z,0
2017-12-30T04:16:21.914Z,0
2017-12-30T04:17:21.927Z,0
2017-12-30T04:18:21.683Z,0
2017-12-30T04:19:21.427Z,0
2017-12-30T04:20:21.959Z,0
2017-12-30T04:21:21.745Z,0
2017-12-30T04:22:21.703Z,0
2017-12-30T04:23:21.729Z,0
2017-12-30T04:24:22.062Z,0
2017-12-30T04:26:22.039Z,0
2017-12-30T04:27:22.062Z,0
2017-12-30T04:28:36.462Z,0
2017-12-30T04:29:21.565Z,0
2017-12-30T04:30:22.051Z,0
2017-12-30T04:31:22.105Z,0
2017-12-30T04:32:22.124Z,0
2017-12-30T04:33:21.874Z,0
2017-12-30T04:34:36.565Z,0
2017-12-30T04:36:36.576Z,0
2017-12-30T04:37:22.163Z,0
2017-12-30T04:38:21.699Z,0
2017-12-30T04:39:21.704Z,0
2017-12-30T04:40:22.195Z,0
2017-12-30T04:41:36.910Z,0
2017-12-30T04:45:22.029Z,0
2017-12-30T04:46:22.011Z,0
2017-12-30T04:47:21.808Z,0
2017-12-30T04:48:22.304Z,0
2017-12-30T04:49:22.330Z,0
2017-12-30T04:50:36.984Z,0
2017-12-30T04:51:22.371Z,0
2017-12-30T04:52:22.122Z,0
2017-12-30T04:53:22.160Z,0
2017-12-30T04:55:36.847Z,0
2017-12-30T04:56:22.157Z,0
2017-12-30T04:57:37.123Z,0
2017-12-30T04:58:22.419Z,0
2017-12-30T04:59:22.233Z,0
2017-12-30T05:00:22.459Z,0
2017-12-30T05:01:22.472Z,0
2017-12-30T05:02:22.504Z,0
2017-12-30T05:03:22.261Z,0
2017-12-30T05:04:22.266Z,0
2017-12-30T05:05:22.291Z,0
2017-12-30T05:06:37.229Z,0
2017-12-30T05:07:22.079Z,0
2017-12-30T05:08:22.350Z,0
2017-12-30T05:10:22.613Z,0
2017-12-30T05:11:22.398Z,0
2017-12-30T05:12:37.275Z,0
2017-12-30T05:13:22.428Z,0
2017-12-30T05:14:37.331Z,0
2017-12-30T05:16:22.675Z,0
2017-12-30T05:17:37.093Z,0
2017-12-30T05:18:22.437Z,0
2017-12-30T05:19:22.743Z,0
2017-12-30T05:20:22.204Z,0
2017-12-30T05:21:22.770Z,0
2017-12-30T05:22:37.438Z,0
2017-12-30T05:23:22.785Z,0
2017-12-30T05:24:22.288Z,0
2017-12-30T05:26:37.490Z,0
2017-12-30T05:27:37.235Z,0
2017-12-30T05:28:22.871Z,0
2017-12-30T05:29:22.879Z,0
2017-12-30T05:31:22.598Z,0
2017-12-30T05:33:37.579Z,0
2017-12-30T05:34:22.653Z,0
2017-12-30T05:35:22.694Z,0
2017-12-30T05:36:22.674Z,0
2017-12-30T05:37:37.386Z,0
2017-12-30T05:38:22.727Z,0
2017-12-30T05:39:22.732Z,0
2017-12-30T05:40:22.974Z,0
2017-12-30T05:42:22.792Z,0
2017-12-30T05:43:22.777Z,0
2017-12-30T05:44:22.788Z,0
2017-12-30T05:45:23.084Z,0
2017-12-30T05:46:22.825Z,0
2017-12-30T05:47:37.763Z,0
2017-12-30T05:48:22.580Z,0
2017-12-30T05:49:37.539Z,0
2017-12-30T05:50:37.797Z,0
2017-12-30T05:51:22.850Z,0
2017-12-30T05:52:23.136Z,0
2017-12-30T05:53:22.894Z,0
2017-12-30T05:54:23.182Z,0
2017-12-30T05:55:22.939Z,0
2017-12-30T05:56:22.436Z,0
2017-12-30T05:57:22.957Z,0
2017-12-30T05:58:23.021Z,0
2017-12-30T05:59:23.274Z,0
2017-12-30T06:00:23.216Z,0
2017-12-30T06:01:23.275Z,0
2017-12-30T06:02:22.544Z,0
2017-12-30T06:03:23.276Z,0
2017-12-30T06:04:23.067Z,0
2017-12-30T06:05:23.309Z,0
2017-12-30T06:06:23.313Z,0
2017-12-30T06:07:23.333Z,0
2017-12-30T06:08:23.125Z,0
2017-12-30T06:09:37.783Z,0
2017-12-30T06:10:23.382Z,0
2017-12-30T06:11:23.379Z,0
2017-12-30T06:12:23.124Z,0
2017-12-30T06:13:23.190Z,0
2017-12-30T06:14:23.208Z,0
2017-12-30T06:15:23.172Z,0
2017-12-30T06:16:23.473Z,0
2017-12-30T06:17:23.476Z,0
2017-12-30T06:18:22.977Z,0
2017-12-30T06:19:23.510Z,0
2017-12-30T06:20:23.503Z,0
2017-12-30T06:21:23.540Z,0
2017-12-30T06:22:23.560Z,0
2017-12-30T06:23:23.533Z,0
2017-12-30T06:24:23.303Z,0
2017-12-30T06:25:38.239Z,0
2017-12-30T06:26:23.665Z,0
2017-12-30T06:27:23.621Z,0
2017-12-30T06:28:23.608Z,0
2017-12-30T06:29:23.191Z,0
2017-12-30T06:31:38.330Z,0
2017-12-30T06:32:23.646Z,0
2017-12-30T06:33:23.681Z,0
2017-12-30T06:34:23.452Z,0
2017-12-30T06:35:23.737Z,0
2017-12-30T06:36:23.742Z,0
2017-12-30T06:37:38.411Z,0
2017-12-30T06:38:23.782Z,0
2017-12-30T06:39:38.171Z,0
2017-12-30T06:40:38.448Z,0
2017-12-30T06:41:38.462Z,0
2017-12-30T06:42:23.802Z,0
2017-12-30T06:43:23.556Z,0
2017-12-30T06:44:23.846Z,0
2017-12-30T06:45:23.628Z,0
2017-12-30T06:46:23.886Z,0
2017-12-30T06:47:23.887Z,0
2017-12-30T06:48:23.599Z,0
2017-12-30T06:49:23.888Z,0
2017-12-30T06:50:23.926Z,0
2017-12-30T06:51:23.656Z,0
2017-12-30T06:52:23.451Z,0
2017-12-30T06:53:23.948Z,0
2017-12-30T06:54:24.080Z,0
2017-12-30T06:55:23.999Z,0
2017-12-30T06:56:38.661Z,0
2017-12-30T06:57:38.684Z,0
2017-12-30T06:58:24.003Z,0
2017-12-30T06:59:23.778Z,0
2017-12-30T07:00:23.795Z,0
2017-12-30T07:01:24.058Z,0
2017-12-30T07:02:23.840Z,0
2017-12-30T07:03:23.825Z,0
2017-12-30T07:04:23.570Z,0
2017-12-30T07:05:24.147Z,0
2017-12-30T07:06:24.140Z,0
2017-12-30T07:07:23.626Z,0
2017-12-30T07:08:24.189Z,0
2017-12-30T07:09:23.652Z,0
2017-12-30T07:10:24.180Z,0
2017-12-30T07:11:23.944Z,0
2017-12-30T07:12:38.880Z,0
2017-12-30T07:13:23.714Z,0
2017-12-30T07:14:23.958Z,0
2017-12-30T07:15:24.269Z,0
2017-12-30T07:16:38.676Z,0
2017-12-30T07:17:24.005Z,0
2017-12-30T07:18:24.062Z,0
2017-12-30T07:19:24.046Z,0
2017-12-30T07:20:24.387Z,0
2017-12-30T07:21:24.433Z,0
2017-12-30T07:22:24.374Z,0
2017-12-30T07:23:23.838Z,0
2017-12-30T07:24:24.143Z,0
2017-12-30T07:25:24.430Z,0
2017-12-30T07:26:39.063Z,0
2017-12-30T07:27:24.426Z,0
2017-12-30T07:28:24.410Z,0
2017-12-30T07:29:38.869Z,0
2017-12-30T07:30:24.445Z,0
2017-12-30T07:31:39.140Z,0
2017-12-30T07:32:24.496Z,0
2017-12-30T07:33:24.504Z,0
2017-12-30T07:34:24.504Z,0
2017-12-30T07:35:24.241Z,0
2017-12-30T07:36:38.967Z,0
2017-12-30T07:37:24.306Z,0
2017-12-30T07:38:24.302Z,0
2017-12-30T07:39:24.579Z,0
2017-12-30T07:40:24.148Z,0
2017-12-30T07:41:24.584Z,5
2017-12-30T07:43:38.833Z,5
2017-12-30T07:44:39.279Z,5
2017-12-30T07:45:23.879Z,5
2017-12-30T07:46:24.661Z,5
2017-12-30T07:47:24.712Z,5
2017-12-30T07:48:24.444Z,5
2017-12-30T07:49:24.504Z,5
2017-12-30T07:50:24.722Z,5
2017-12-30T07:51:23.975Z,5
2017-12-30T07:52:24.525Z,5
2017-12-30T07:53:24.489Z,5
2017-12-30T07:54:24.792Z,5
2017-12-30T07:55:24.810Z,5
2017-12-30T07:57:24.830Z,5
2017-12-30T07:58:24.596Z,5
2017-12-30T07:59:39.246Z,5
2017-12-30T08:00:39.275Z,5
2017-12-30T08:01:24.849Z,5
2017-12-30T08:02:24.634Z,5
2017-12-30T08:03:24.786Z,5
2017-12-30T08:04:39.588Z,5
2017-12-30T08:05:24.933Z,5
2017-12-30T08:06:24.685Z,5
2017-12-30T08:07:24.700Z,5
2017-12-30T08:08:24.998Z,5
2017-12-30T08:09:24.771Z,5
2017-12-30T08:10:25.006Z,5
2017-12-30T08:11:25.002Z,10
2017-12-30T08:12:39.457Z,10
2017-12-30T08:13:25.028Z,10
2017-12-30T08:14:24.784Z,10
2017-12-30T08:15:24.803Z,10
2017-12-30T08:16:39.736Z,10
2017-12-30T08:17:25.124Z,15
2017-12-30T08:18:24.839Z,15
2017-12-30T08:19:25.134Z,15
2017-12-30T08:20:39.844Z,15
2017-12-30T08:21:39.825Z,15
2017-12-30T08:22:39.564Z,15
2017-12-30T08:23:24.704Z,15
2017-12-30T08:24:25.177Z,15
2017-12-30T08:25:25.193Z,15
2017-12-30T08:26:25.218Z,15
2017-12-30T08:27:24.995Z,20
2017-12-30T08:28:24.733Z,20
2017-12-30T08:29:25.287Z,20
2017-12-30T08:30:39.961Z,20
2017-12-30T08:31:25.014Z,20
2017-12-30T08:33:25.069Z,20
2017-12-30T08:34:25.068Z,20
2017-12-30T08:35:25.119Z,20
2017-12-30T08:36:40.034Z,25
2017-12-30T08:37:24.629Z,25
2017-12-30T08:38:25.102Z,25
2017-12-30T08:39:25.153Z,25
2017-12-30T08:40:25.184Z,25
2017-12-30T08:41:25.162Z,25
2017-12-30T08:42:25.167Z,25
2017-12-30T08:43:25.178Z,25
2017-12-30T08:44:39.908Z,25
2017-12-30T08:45:24.971Z,25
2017-12-30T08:46:25.533Z,30
2017-12-30T08:47:39.937Z,30
2017-12-30T08:48:25.275Z,30
2017-12-30T08:49:40.197Z,35
2017-12-30T08:51:25.621Z,35
2017-12-30T08:52:25.634Z,35
2017-12-30T08:53:40.013Z,40
2017-12-30T08:54:25.593Z,40
2017-12-30T08:55:25.627Z,40
2017-12-30T08:56:25.655Z,40
2017-12-30T08:57:25.650Z,40
2017-12-30T08:58:40.368Z,40
2017-12-30T08:59:25.713Z,40
2017-12-30T09:00:25.712Z,40
2017-12-30T09:01:25.474Z,40
2017-12-30T09:02:25.452Z,45
2017-12-30T09:03:25.743Z,45
2017-12-30T09:06:25.891Z,45
2017-12-30T09:07:25.842Z,45
2017-12-30T09:08:25.532Z,40
2017-12-30T09:09:25.856Z,40
2017-12-30T09:10:40.523Z,40
2017-12-30T09:11:25.596Z,40
2017-12-30T09:12:25.850Z,40
2017-12-30T09:13:40.550Z,35
2017-12-30T09:14:25.638Z,35
2017-12-30T09:15:40.324Z,35
2017-12-30T09:16:25.722Z,35
2017-12-30T09:17:25.959Z,35
2017-12-30T09:18:25.922Z,35
2017-12-30T09:19:55.332Z,35
2017-12-30T09:20:25.754Z,35
2017-12-30T09:21:25.782Z,30
2017-12-30T09:22:26.048Z,30
2017-12-30T09:23:25.799Z,30
2017-12-30T09:24:26.083Z,30
2017-12-30T09:25:40.760Z,30
2017-12-30T09:26:26.090Z,30
2017-12-30T09:27:25.828Z,30
2017-12-30T09:28:40.797Z,25
2017-12-30T09:29:26.127Z,25
2017-12-30T09:31:26.130Z,30
2017-12-30T09:32:25.657Z,30
2017-12-30T09:33:26.202Z,30
2017-12-30T09:34:25.674Z,30
2017-12-30T09:36:26.234Z,30
2017-12-30T09:37:40.671Z,30
2017-12-30T09:38:40.397Z,30
2017-12-30T09:39:26.263Z,30
2017-12-30T09:40:40.781Z,30
2017-12-30T09:41:25.800Z,30
2017-12-30T09:42:41.019Z,30
2017-12-30T09:43:26.334Z,30
2017-12-30T09:44:26.123Z,30
2017-12-30T09:45:26.388Z,35
2017-12-30T09:46:26.121Z,35
2017-12-30T09:47:26.402Z,35
2017-12-30T09:49:26.171Z,30
2017-12-30T09:50:26.403Z,30
2017-12-30T09:51:41.112Z,30
2017-12-30T09:52:26.478Z,30
2017-12-30T09:55:26.537Z,30
2017-12-30T09:56:26.249Z,30
2017-12-30T09:57:26.307Z,30
2017-12-30T09:58:26.278Z,30
2017-12-30T09:59:26.553Z,30
2017-12-30T10:00:26.560Z,30
2017-12-30T10:01:26.592Z,35
2017-12-30T10:02:26.108Z,35
2017-12-30T10:03:26.614Z,35
2017-12-30T10:04:26.147Z,35
2017-12-30T10:05:26.406Z,35
2017-12-30T10:06:26.423Z,35
2017-12-30T10:07:41.093Z,40
2017-12-30T10:10:41.142Z,40
2017-12-30T10:11:26.774Z,40
2017-12-30T10:13:41.443Z,40
2017-12-30T10:14:26.521Z,40
2017-12-30T10:15:26.814Z,45
2017-12-30T10:16:26.852Z,45
2017-12-30T10:17:26.624Z,45
2017-12-30T10:19:26.588Z,45
2017-12-30T10:21:26.903Z,50
2017-12-30T10:22:41.576Z,55
2017-12-30T10:23:26.927Z,55
2017-12-30T10:24:26.677Z,55
2017-12-30T10:25:26.701Z,60
2017-12-30T10:26:26.718Z,60
2017-12-30T10:27:41.628Z,60
2017-12-30T10:28:41.391Z,60
2017-12-30T10:29:41.654Z,65
2017-12-30T10:30:27.102Z,60
2017-12-30T10:31:26.817Z,60
2017-12-30T10:32:26.812Z,60
2017-12-30T10:33:27.048Z,60
2017-12-30T10:34:26.857Z,60
2017-12-30T10:35:27.131Z,60
2017-12-30T10:36:41.810Z,60
2017-12-30T10:37:27.098Z,60
2017-12-30T10:38:27.201Z,60
2017-12-30T10:39:26.661Z,60
2017-12-30T10:40:26.919Z,60
2017-12-30T10:41:27.190Z,60
2017-12-30T10:42:41.396Z,60
2017-12-30T10:43:41.882Z,60
2017-12-30T10:44:27.262Z,60
2017-12-30T10:45:26.998Z,60
2017-12-30T10:46:27.044Z,60
2017-12-30T10:47:41.933Z,60
2017-12-30T10:48:41.746Z,55
2017-12-30T10:49:27.053Z,55
2017-12-30T10:50:27.337Z,55
2017-12-30T10:51:42.077Z,55
2017-12-30T10:52:27.106Z,55
2017-12-30T10:53:27.437Z,50
2017-12-30T10:54:42.052Z,50
2017-12-30T10:55:27.564Z,50
2017-12-30T10:56:27.458Z,50
2017-12-30T10:57:27.438Z,50
2017-12-30T10:58:27.434Z,50
2017-12-30T10:59:27.216Z,45
2017-12-30T11:00:42.165Z,45
2017-12-30T11:01:42.198Z,45
2017-12-30T11:02:27.497Z,45
2017-12-30T11:03:27.654Z,45
2017-12-30T11:04:27.292Z,45
2017-12-30T11:05:27.324Z,45
2017-12-30T11:06:27.640Z,45
2017-12-30T11:07:27.336Z,45
2017-12-30T11:09:27.152Z,45
2017-12-30T11:10:56.991Z,40
2017-12-30T11:11:27.661Z,40
2017-12-30T11:12:42.345Z,40
2017-12-30T11:13:27.424Z,40
2017-12-30T11:14:27.440Z,40
2017-12-30T11:15:27.717Z,40
2017-12-30T11:16:27.474Z,40
2017-12-30T11:17:27.526Z,40
2017-12-30T11:18:42.546Z,40
2017-12-30T11:19:27.573Z,40
2017-12-30T11:20:27.541Z,35
2017-12-30T11:21:27.594Z,35
2017-12-30T11:22:27.845Z,35
2017-12-30T11:23:27.833Z,35
2017-12-30T11:24:27.849Z,35
2017-12-30T11:25:27.654Z,35
2017-12-30T11:27:27.678Z,35
2017-12-30T11:28:27.418Z,35
2017-12-30T11:29:27.690Z,35
2017-12-30T11:30:27.968Z,35
2017-12-30T11:31:28.007Z,35
2017-12-30T11:32:27.717Z,40
2017-12-30T11:33:27.769Z,40
2017-12-30T11:34:28.005Z,40
2017-12-30T11:35:42.701Z,40
2017-12-30T11:36:27.533Z,40
2017-12-30T11:37:28.071Z,40
2017-12-30T11:38:27.626Z,40
2017-12-30T11:39:42.522Z,40
2017-12-30T11:41:28.147Z,40
2017-12-30T11:42:42.825Z,40
2017-12-30T11:43:42.810Z,35
2017-12-30T11:44:27.643Z,35
2017-12-30T11:45:42.880Z,35
2017-12-30T11:46:28.271Z,35
2017-12-30T11:47:27.954Z,35
2017-12-30T11:48:28.259Z,35
2017-12-30T11:50:28.377Z,35
2017-12-30T11:51:28.367Z,35
2017-12-30T11:52:28.064Z,35
2017-12-30T11:53:43.051Z,35
2017-12-30T11:54:28.335Z,35
2017-12-30T11:55:28.073Z,35
2017-12-30T11:56:28.357Z,35
2017-12-30T11:57:43.040Z,35
2017-12-30T11:58:43.047Z,35
2017-12-30T11:59:28.170Z,35
2017-12-30T12:00:28.437Z,40
2017-12-30T12:01:43.107Z,40
2017-12-30T12:02:28.438Z,40
2017-12-30T12:03:28.467Z,45
2017-12-30T12:04:28.503Z,45
2017-12-30T12:05:28.119Z,45
2017-12-30T12:06:28.506Z,45
2017-12-30T12:07:28.284Z,45
2017-12-30T12:08:28.587Z,45
2017-12-30T12:09:28.312Z,45
2017-12-30T12:10:28.556Z,45
2017-12-30T12:11:27.843Z,45
2017-12-30T12:12:43.049Z,45
2017-12-30T12:13:28.102Z,45
2017-12-30T12:14:28.170Z,40
2017-12-30T12:15:28.645Z,40
2017-12-30T12:16:28.422Z,35
2017-12-30T12:17:28.687Z,35
2017-12-30T12:18:28.449Z,35
2017-12-30T12:19:28.213Z,30
2017-12-30T12:20:28.493Z,30
2017-12-30T12:21:28.730Z,30
2017-12-30T12:23:28.802Z,30
2017-12-30T12:24:28.885Z,30
2017-12-30T12:25:28.295Z,30
2017-12-30T12:26:28.823Z,30
2017-12-30T12:27:28.843Z,30
2017-12-30T12:28:43.306Z,30
2017-12-30T12:29:43.283Z,25
2017-12-30T12:30:28.655Z,25
2017-12-30T12:31:43.320Z,25
2017-12-30T12:32:43.348Z,20
2017-12-30T12:34:28.711Z,20
2017-12-30T12:35:43.381Z,15
2017-12-30T12:37:28.525Z,15
2017-12-30T12:38:29.004Z,15
2017-12-30T12:39:28.748Z,15
2017-12-30T12:40:29.031Z,15
2017-12-30T12:41:28.843Z,15
2017-12-30T12:42:29.061Z,15
2017-12-30T12:43:29.074Z,15
2017-12-30T12:45:58.216Z,15
2017-12-30T12:46:28.856Z,15
2017-12-30T12:47:28.626Z,15
2017-12-30T12:48:28.990Z,15
2017-12-30T12:49:28.692Z,10
2017-12-30T12:50:29.225Z,10
2017-12-30T12:51:28.688Z,10
2017-12-30T12:52:29.232Z,10
2017-12-30T12:53:29.274Z,10
2017-12-30T12:54:29.028Z,10
2017-12-30T12:55:29.269Z,10
2017-12-30T12:56:29.130Z,10
2017-12-30T12:57:29.304Z,10
2017-12-30T12:58:29.324Z,15
2017-12-30T12:59:29.104Z,15
2017-12-30T13:01:43.786Z,15
2017-12-30T13:02:29.425Z,15
2017-12-30T13:03:29.165Z,15
2017-12-30T13:04:29.181Z,20
2017-12-30T13:05:29.184Z,20
2017-12-30T13:06:44.157Z,25
2017-12-30T13:07:29.231Z,25
2017-12-30T13:08:29.469Z,25
2017-12-30T13:09:29.502Z,25
2017-12-30T13:10:29.502Z,25
2017-12-30T13:11:29.298Z,30
2017-12-30T13:12:29.037Z,30
2017-12-30T13:13:29.553Z,30
2017-12-30T13:14:29.309Z,30
2017-12-30T13:15:29.572Z,30
2017-12-30T13:16:29.367Z,35
2017-12-30T13:17:58.942Z,35
2017-12-30T13:18:29.620Z,35
2017-12-30T13:19:29.398Z,35
2017-12-30T13:20:28.663Z,35
2017-12-30T13:21:29.441Z,35
2017-12-30T13:22:44.343Z,35
2017-12-30T13:23:29.717Z,35
2017-12-30T13:24:29.788Z,35
2017-12-30T13:25:29.755Z,35
2017-12-30T13:26:35.929Z,35
2017-12-30T13:27:29.887Z,30
2017-12-30T13:28:29.783Z,30
2017-12-30T13:29:44.492Z,30
2017-12-30T13:30:29.804Z,30
2017-12-30T13:31:29.334Z,30
2017-12-30T13:32:59.182Z,25
2017-12-30T13:33:29.626Z,25
2017-12-30T13:34:29.388Z,25
2017-12-30T13:35:29.902Z,25
2017-12-30T13:36:29.932Z,20
2017-12-30T13:37:29.922Z,15
2017-12-30T13:38:29.686Z,15
2017-12-30T13:39:29.980Z,10
2017-12-30T13:40:29.702Z,10
2017-12-30T13:41:30.011Z,10
2017-12-30T13:42:30.028Z,10
2017-12-30T13:43:29.769Z,10
2017-12-30T13:45:29.818Z,10
2017-12-30T13:46:30.066Z,15
2017-12-30T13:47:44.778Z,15
2017-12-30T13:48:44.774Z,15
2017-12-30T13:49:30.141Z,15
2017-12-30T13:50:44.819Z,20
2017-12-30T13:51:29.619Z,20
2017-12-30T13:52:30.154Z,15
2017-12-30T13:53:44.617Z,15
2017-12-30T13:55:30.253Z,15
2017-12-30T13:56:30.281Z,15
2017-12-30T13:57:29.760Z,15
2017-12-30T13:58:29.980Z,10
2017-12-30T13:59:29.992Z,10
2017-12-30T14:00:29.799Z,10
2017-12-30T14:01:30.052Z,10
2017-12-30T14:02:45.003Z,10
2017-12-30T14:03:44.776Z,15
2017-12-30T14:04:44.784Z,10
2017-12-30T14:05:45.065Z,10
2017-12-30T14:06:29.892Z,10
2017-12-30T14:07:30.395Z,5
2017-12-30T14:08:29.907Z,5
2017-12-30T14:09:30.192Z,5
2017-12-30T14:10:59.774Z,5
2017-12-30T14:13:30.219Z,5
2017-12-30T14:14:45.176Z,5
2017-12-30T14:15:30.272Z,5
2017-12-30T14:16:45.185Z,5
2017-12-30T14:17:45.252Z,5
2017-12-30T14:18:30.324Z,5
2017-12-30T14:19:30.325Z,5
2017-12-30T14:20:45.012Z,5
2017-12-30T14:21:30.377Z,5
2017-12-30T14:22:30.375Z,5
2017-12-30T14:23:30.397Z,5
2017-12-30T14:24:45.124Z,5
2017-12-30T14:25:30.453Z,5
2017-12-30T14:26:30.716Z,5
2017-12-30T14:27:30.451Z,5
2017-12-30T14:28:29.959Z,5
2017-12-30T14:29:30.789Z,5
2017-12-30T14:30:45.441Z,5
2017-12-30T14:31:30.531Z,5
2017-12-30T14:32:30.578Z,5
2017-12-30T14:33:30.588Z,5
2017-12-30T14:34:30.572Z,5
2017-12-30T14:35:45.478Z,5
2017-12-30T14:37:00.200Z,5
2017-12-30T14:37:30.997Z,5
2017-12-30T14:38:45.286Z,0
2017-12-30T14:39:30.635Z,5
2017-12-30T14:40:30.492Z,5
2017-12-30T14:41:31.009Z,5
2017-12-30T14:42:45.650Z,5
2017-12-30T14:43:45.378Z,0
2017-12-30T14:44:30.691Z,0
2017-12-30T14:45:30.512Z,0
2017-12-30T14:46:31.004Z,0
2017-12-30T14:47:31.019Z,0
2017-12-30T14:48:31.148Z,0
2017-12-30T14:49:30.789Z,0
2017-12-30T14:50:45.738Z,0
2017-12-30T14:51:30.585Z,0
2017-12-30T14:52:45.751Z,0
2017-12-30T14:53:30.850Z,0
2017-12-30T14:54:30.657Z,0
2017-12-30T14:55:30.649Z,0
2017-12-30T14:57:30.909Z,0
2017-12-30T14:58:31.270Z,0
2017-12-30T14:59:31.218Z,0
2017-12-30T15:00:31.206Z,0
2017-12-30T15:02:30.753Z,0
2017-12-30T15:03:31.008Z,0
2017-12-30T15:04:31.075Z,0
2017-12-30T15:05:31.362Z,0
2017-12-30T15:06:31.306Z,0
2017-12-30T15:07:45.998Z,0
2017-12-30T15:08:31.322Z,0
2017-12-30T15:09:31.345Z,0
2017-12-30T15:10:31.124Z,0
2017-12-30T15:11:46.038Z,0
2017-12-30T15:12:30.883Z,0
2017-12-30T15:13:31.207Z,0
2017-12-30T15:14:46.135Z,0
2017-12-30T15:15:30.931Z,0
2017-12-30T15:16:31.444Z,0
2017-12-30T15:17:31.487Z,0
2017-12-30T15:18:46.149Z,0
2017-12-30T15:19:46.341Z,0
2017-12-30T15:20:31.535Z,0
2017-12-30T15:21:31.272Z,0
2017-12-30T15:22:31.542Z,0
2017-12-30T15:24:31.097Z,0
2017-12-30T15:25:31.567Z,0
2017-12-30T15:26:31.575Z,0
2017-12-30T15:27:31.373Z,0
2017-12-30T15:28:45.805Z,0
2017-12-30T15:29:46.060Z,0
2017-12-30T15:30:31.459Z,0
2017-12-30T15:31:31.405Z,0